nws-alerts: Checking more than four warning/county codes can delay the loading of your pages. You should use a cron job to get the data.
EllijayWeather Station Historical Data
Daily Summary for May 7, 2019 Units:  English    Metric   Both
Daily Weekly Monthly Yearly Custom
  High: Low: Average:
Temperature: 79.9 °F 51.3 °F 65.7 °F
Dew Point: 64.8 °F 50.2 °F 57.8 °F
Humidity: 98% 46% 79%
Wind Speed: 2mph 0mph 0mph
Wind Gust: 7mph - -
Wind- - South
Pressure: 30.18 in 30.09 in -
Precipitation: 0 in    
Historical Graphs
 
 
Tabular Data for May 7, 2019
Time Temperature Dew Point Pressure Wind Wind Speed Wind Gust Humidity Rainfall Rate (Hourly) solar
00:04 57.4 °F 55.6 °F 30.11 in Calm     94% 0 in meteobridge W/m2
00:09 57.2 °F 55.4 °F 30.11 in Calm     94% 0 in meteobridge W/m2
00:14 57.2 °F 55.4 °F 30.11 in Calm     94% 0 in meteobridge W/m2
00:19 57 °F 55.2 °F 30.11 in Calm     94% 0 in meteobridge W/m2
00:24 57 °F 55.2 °F 30.11 in Calm     94% 0 in meteobridge W/m2
00:29 56.8 °F 55.2 °F 30.11 in Calm     94% 0 in meteobridge W/m2
00:34 56.8 °F 55.2 °F 30.11 in Calm     94% 0 in meteobridge W/m2
00:39 56.7 °F 55 °F 30.11 in Calm     94% 0 in meteobridge W/m2
00:44 56.7 °F 55.2 °F 30.11 in Calm     95% 0 in meteobridge W/m2
00:49 56.7 °F 55.2 °F 30.11 in Calm     95% 0 in meteobridge W/m2
00:54 56.5 °F 54.9 °F 30.11 in Calm     94% 0 in meteobridge W/m2
00:59 56.5 °F 54.9 °F 30.11 in Calm     94% 0 in meteobridge W/m2
01:04 56.5 °F 54.9 °F 30.11 in Calm     94% 0 in meteobridge W/m2
01:09 56.5 °F 55 °F 30.11 in Calm     95% 0 in meteobridge W/m2
01:14 56.1 °F 54.7 °F 30.11 in Calm     95% 0 in meteobridge W/m2
01:19 56.1 °F 54.7 °F 30.11 in Calm     95% 0 in meteobridge W/m2
01:24 56.1 °F 54.7 °F 30.11 in Calm     95% 0 in meteobridge W/m2
01:29 55.9 °F 54.5 °F 30.11 in Calm     95% 0 in meteobridge W/m2
01:34 55.8 °F 54.3 °F 30.11 in Calm     95% 0 in meteobridge W/m2
01:39 55.8 °F 54.3 °F 30.11 in Calm     95% 0 in meteobridge W/m2
01:44 55.6 °F 54.1 °F 30.11 in Calm     95% 0 in meteobridge W/m2
01:49 55.6 °F 54.1 °F 30.11 in Calm     95% 0 in meteobridge W/m2
01:54 55.4 °F 54 °F 30.11 in Calm     95% 0 in meteobridge W/m2
01:59 55.2 °F 53.8 °F 30.10 in Calm     95% 0 in meteobridge W/m2
02:04 55.2 °F 53.8 °F 30.10 in Calm     95% 0 in meteobridge W/m2
02:09 55 °F 53.6 °F 30.10 in Calm     95% 0 in meteobridge W/m2
02:14 55 °F 53.6 °F 30.10 in Calm     95% 0 in meteobridge W/m2
02:19 54.9 °F 53.4 °F 30.10 in Calm     95% 0 in meteobridge W/m2
02:24 54.9 °F 53.4 °F 30.10 in Calm     95% 0 in meteobridge W/m2
02:29 54.7 °F 53.2 °F 30.09 in Calm     95% 0 in meteobridge W/m2
02:34 54.7 °F 53.2 °F 30.09 in Calm     95% 0 in meteobridge W/m2
02:39 54.5 °F 53.1 °F 30.09 in Calm     95% 0 in meteobridge W/m2
02:44 54.5 °F 53.1 °F 30.09 in Calm     95% 0 in meteobridge W/m2
02:49 54.3 °F 52.9 °F 30.09 in Calm     95% 0 in meteobridge W/m2
02:54 54.3 °F 52.9 °F 30.10 in Calm     95% 0 in meteobridge W/m2
02:59 54.1 °F 52.7 °F 30.09 in Calm     95% 0 in meteobridge W/m2
03:04 54 °F 52.5 °F 30.09 in Calm     95% 0 in meteobridge W/m2
03:09 54 °F 52.5 °F 30.09 in Calm     95% 0 in meteobridge W/m2
03:14 54 °F 52.5 °F 30.09 in Calm     95% 0 in meteobridge W/m2
03:19 54 °F 52.9 °F 30.09 in Calm     96% 0 in meteobridge W/m2
03:24 53.8 °F 52.7 °F 30.09 in Calm     96% 0 in meteobridge W/m2
03:29 53.8 °F 52.7 °F 30.09 in Calm     96% 0 in meteobridge W/m2
03:34 53.8 °F 52.7 °F 30.09 in Calm     96% 0 in meteobridge W/m2
03:39 53.8 °F 52.3 °F 30.10 in Calm     95% 0 in meteobridge W/m2
03:44 53.4 °F 52.3 °F 30.09 in Calm     96% 0 in meteobridge W/m2
03:49 53.6 °F 52.5 °F 30.09 in Calm     96% 0 in meteobridge W/m2
03:54 53.6 °F 52.5 °F 30.09 in Calm     96% 0 in meteobridge W/m2
03:59 53.4 °F 52.3 °F 30.09 in Calm     96% 0 in meteobridge W/m2
04:04 53.4 °F 52.3 °F 30.09 in Calm     96% 0 in meteobridge W/m2
04:09 53.4 °F 52.3 °F 30.10 in Calm     96% 0 in meteobridge W/m2
04:14 53.2 °F 52.2 °F 30.10 in Calm     96% 0 in meteobridge W/m2
04:19 53.2 °F 52.2 °F 30.10 in Calm     96% 0 in meteobridge W/m2
04:24 53.2 °F 52.2 °F 30.10 in Calm     96% 0 in meteobridge W/m2
04:29 53.2 °F 52.2 °F 30.10 in Calm     96% 0 in meteobridge W/m2
04:34 53.1 °F 52 °F 30.10 in Calm     96% 0 in meteobridge W/m2
04:39 53.1 °F 52 °F 30.10 in Calm     96% 0 in meteobridge W/m2
04:44 53.1 °F 52 °F 30.10 in Calm     96% 0 in meteobridge W/m2
04:49 52.9 °F 51.8 °F 30.10 in Calm     96% 0 in meteobridge W/m2
04:54 52.9 °F 51.8 °F 30.10 in Calm     96% 0 in meteobridge W/m2
04:59 52.7 °F 51.6 °F 30.10 in Calm     96% 0 in meteobridge W/m2
05:04 52.5 °F 51.4 °F 30.10 in Calm     96% 0 in meteobridge W/m2
05:09 52.5 °F 51.4 °F 30.10 in Calm     96% 0 in meteobridge W/m2
05:14 52.5 °F 51.4 °F 30.10 in Calm     96% 0 in meteobridge W/m2
05:19 52.5 °F 51.4 °F 30.10 in Calm     96% 0 in meteobridge W/m2
05:24 52.3 °F 51.3 °F 30.11 in Calm     96% 0 in meteobridge W/m2
05:29 52.3 °F 51.3 °F 30.11 in Calm     96% 0 in meteobridge W/m2
05:34 52.3 °F 51.3 °F 30.11 in Calm     96% 0 in meteobridge W/m2
05:39 52.3 °F 51.3 °F 30.11 in Calm     96% 0 in meteobridge W/m2
05:44 52.3 °F 51.4 °F 30.11 in Calm     97% 0 in meteobridge W/m2
05:49 52.3 °F 51.3 °F 30.11 in Calm     96% 0 in meteobridge W/m2
05:54 52.3 °F 51.3 °F 30.11 in Calm     96% 0 in meteobridge W/m2
05:59 52.2 °F 51.1 °F 30.11 in Calm     96% 0 in meteobridge W/m2
06:04 52.2 °F 51.1 °F 30.11 in Calm     96% 0 in meteobridge W/m2
06:09 52.2 °F 51.1 °F 30.11 in Calm     96% 0 in meteobridge W/m2
06:14 52 °F 51.1 °F 30.11 in Calm     97% 0 in meteobridge W/m2
06:19 52 °F 50.9 °F 30.11 in Calm     96% 0 in meteobridge W/m2
06:24 52 °F 50.9 °F 30.11 in Calm     96% 0 in meteobridge W/m2
06:29 52 °F 50.9 °F 30.12 in Calm     96% 0 in meteobridge W/m2
06:34 52 °F 50.9 °F 30.12 in Calm     96% 0 in meteobridge W/m2
06:39 51.8 °F 50.7 °F 30.13 in Calm     96% 0 in meteobridge W/m2
06:44 52 °F 50.9 °F 30.13 in Calm     96% 0 in meteobridge W/m2
06:49 51.8 °F 50.7 °F 30.13 in Calm     96% 0 in meteobridge W/m2
06:54 51.6 °F 50.5 °F 30.14 in Calm     96% 0 in meteobridge W/m2
06:59 51.6 °F 50.5 °F 30.14 in Calm     96% 0 in meteobridge W/m2
07:04 51.6 °F 50.5 °F 30.14 in Calm     96% 0 in meteobridge W/m2
07:09 51.4 °F 50.4 °F 30.14 in Calm     96% 0 in meteobridge W/m2
07:14 51.3 °F 50.2 °F 30.14 in Calm     96% 0 in meteobridge W/m2
07:19 51.3 °F 50.2 °F 30.14 in Calm     96% 0 in meteobridge W/m2
07:24 51.3 °F 50.2 °F 30.14 in Calm     96% 0 in meteobridge W/m2
07:29 51.3 °F 50.2 °F 30.14 in Calm     96% 0 in meteobridge W/m2
07:34 51.4 °F 50.5 °F 30.14 in Calm     97% 0 in meteobridge W/m2
07:39 51.4 °F 50.5 °F 30.15 in Calm     97% 0 in meteobridge W/m2
07:44 51.8 °F 50.9 °F 30.15 in Calm     97% 0 in meteobridge W/m2
07:49 52 °F 51.4 °F 30.15 in Calm     98% 0 in meteobridge W/m2
07:54 52.2 °F 51.6 °F 30.16 in Calm     98% 0 in meteobridge W/m2
07:59 52.3 °F 51.8 °F 30.16 in Calm     98% 0 in meteobridge W/m2
08:04 52.5 °F 52 °F 30.16 in Calm     98% 0 in meteobridge W/m2
08:09 52.9 °F 52.3 °F 30.16 in Calm     98% 0 in meteobridge W/m2
08:14 53.2 °F 52.7 °F 30.16 in Calm     98% 0 in meteobridge W/m2
08:19 53.8 °F 53.2 °F 30.16 in Calm     98% 0 in meteobridge W/m2
08:24 54 °F 53.4 °F 30.16 in Calm     98% 0 in meteobridge W/m2
08:29 54.3 °F 53.8 °F 30.16 in Calm     98% 0 in meteobridge W/m2
08:34 54.9 °F 54.3 °F 30.17 in Calm     98% 0 in meteobridge W/m2
08:39 55 °F 54.5 °F 30.17 in Calm     98% 0 in meteobridge W/m2
08:44 55.6 °F 55 °F 30.17 in Calm     98% 0 in meteobridge W/m2
08:49 55.9 °F 55.4 °F 30.17 in Calm   1 mph 98% 0 in meteobridge W/m2
08:54 56.3 °F 55.8 °F 30.17 in Calm   1 mph 98% 0 in meteobridge W/m2
08:59 57 °F 56.1 °F 30.17 in Calm     97% 0 in meteobridge W/m2
09:04 57.6 °F 56.7 °F 30.17 in Calm     97% 0 in meteobridge W/m2
09:09 58.1 °F 57.2 °F 30.18 in Calm     97% 0 in meteobridge W/m2
09:14 58.5 °F 57.6 °F 30.18 in Calm     97% 0 in meteobridge W/m2
09:19 59 °F 57.9 °F 30.18 in Calm     96% 0 in meteobridge W/m2
09:24 59.4 °F 58.3 °F 30.18 in Calm     96% 0 in meteobridge W/m2
09:29 60.1 °F 59 °F 30.18 in Calm     96% 0 in meteobridge W/m2
09:34 60.6 °F 59.2 °F 30.18 in Calm     95% 0 in meteobridge W/m2
09:39 61.3 °F 59.5 °F 30.18 in Calm     94% 0 in meteobridge W/m2
09:44 61.9 °F 60.1 °F 30.18 in Calm     94% 0 in meteobridge W/m2
09:49 62.4 °F 60.4 °F 30.18 in Calm     93% 0 in meteobridge W/m2
09:54 63.1 °F 61.2 °F 30.18 in Calm     93% 0 in meteobridge W/m2
09:59 63.7 °F 61.9 °F 30.18 in Calm     94% 0 in meteobridge W/m2
10:04 64.2 °F 62.2 °F 30.18 in Calm     93% 0 in meteobridge W/m2
10:09 64.8 °F 62.4 °F 30.18 in Calm     92% 0 in meteobridge W/m2
10:14 65.1 °F 62.8 °F 30.18 in Calm     92% 0 in meteobridge W/m2
10:19 65.8 °F 63.1 °F 30.18 in Calm     91% 0 in meteobridge W/m2
10:24 66.4 °F 62.4 °F 30.18 in Calm     87% 0 in meteobridge W/m2
10:29 66.7 °F 61.3 °F 30.18 in Calm     83% 0 in meteobridge W/m2
10:34 67.6 °F 61.5 °F 30.18 in Calm     81% 0 in meteobridge W/m2
10:39 68.2 °F 61.7 °F 30.18 in Calm     80% 0 in meteobridge W/m2
10:44 68.5 °F 61.7 °F 30.18 in Calm   1 mph 79% 0 in meteobridge W/m2
10:49 69.4 °F 63.3 °F 30.18 in Calm     81% 0 in meteobridge W/m2
10:54 70 °F 64.2 °F 30.18 in Calm     82% 0 in meteobridge W/m2
10:59 70.3 °F 62.1 °F 30.18 in Calm     75% 0 in meteobridge W/m2
11:04 70.9 °F 61.3 °F 30.18 in Calm   2 mph 72% 0 in meteobridge W/m2
11:09 71.4 °F 61.2 °F 30.18 in Calm     70% 0 in meteobridge W/m2
11:14 72.1 °F 61.9 °F 30.18 in Calm   1 mph 70% 0 in meteobridge W/m2
11:18 72.9 °F 59.9 °F 30.18 in Calm   1 mph 64% 0 in meteobridge W/m2
11:24 73.8 °F 59.5 °F 30.17 in Calm   1 mph 61% 0 in meteobridge W/m2
11:29 74.7 °F 59.4 °F 30.17 in Calm   1 mph 59% 0 in meteobridge W/m2
11:34 75.4 °F 59.5 °F 30.17 in Calm   1 mph 58% 0 in meteobridge W/m2
11:39 75.7 °F 59.9 °F 30.17 in Calm   1 mph 58% 0 in meteobridge W/m2
11:44 76.3 °F 61 °F 30.17 in Calm     59% 0 in meteobridge W/m2
11:49 76.5 °F 61.5 °F 30.17 in Calm     60% 0 in meteobridge W/m2
11:54 76.8 °F 62.4 °F 30.17 in Calm   1 mph 61% 0 in meteobridge W/m2
11:59 77 °F 61.2 °F 30.17 in Calm     58% 0 in meteobridge W/m2
12:04 77.2 °F 62.2 °F 30.17 in NW 0.9 mph 1 mph 60% 0 in meteobridge W/m2
12:09 77.5 °F 60.6 °F 30.18 in Calm   1 mph 56% 0 in meteobridge W/m2
12:14 77.7 °F 61.3 °F 30.17 in Calm   1 mph 57% 0 in meteobridge W/m2
12:19 78.1 °F 62.6 °F 30.17 in Calm     59% 0 in meteobridge W/m2
12:24 77.7 °F 59.7 °F 30.17 in NW 2 mph 3 mph 54% 0 in meteobridge W/m2
12:29 77.7 °F 60.3 °F 30.17 in Calm   1 mph 55% 0 in meteobridge W/m2
12:34 78.1 °F 60.6 °F 30.17 in South 0.9 mph 4 mph 55% 0 in meteobridge W/m2
12:39 78.3 °F 60.3 °F 30.17 in Calm   1 mph 54% 0 in meteobridge W/m2
12:44 78.4 °F 60.4 °F 30.17 in Calm   1 mph 54% 0 in meteobridge W/m2
12:49 79 °F 60.4 °F 30.17 in Calm   1 mph 53% 0 in meteobridge W/m2
12:54 79 °F 60.4 °F 30.17 in Calm     53% 0 in meteobridge W/m2
12:59 79.2 °F 62.1 °F 30.17 in Calm   1 mph 56% 0 in meteobridge W/m2
13:04 79.3 °F 58.5 °F 30.17 in Calm   1 mph 49% 0 in meteobridge W/m2
13:09 79.5 °F 57.6 °F 30.17 in Calm   3 mph 47% 0 in meteobridge W/m2
13:14 79.7 °F 59.9 °F 30.17 in Calm   1 mph 51% 0 in meteobridge W/m2
13:19 79.5 °F 59.7 °F 30.16 in Calm     51% 0 in meteobridge W/m2
13:24 79.5 °F 59.2 °F 30.16 in Calm     50% 0 in meteobridge W/m2
13:29 79.5 °F 59.2 °F 30.16 in Calm   3 mph 50% 0 in meteobridge W/m2
13:34 79.5 °F 60.4 °F 30.16 in Calm     52% 0 in meteobridge W/m2
13:39 79 °F 59.9 °F 30.16 in Calm     52% 0 in meteobridge W/m2
13:44 78.6 °F 59 °F 30.15 in Calm   2 mph 51% 0 in meteobridge W/m2
13:49 79 °F 58.1 °F 30.16 in NNW 0.9 mph 2 mph 49% 0 in meteobridge W/m2
13:54 79.3 °F 59 °F 30.15 in NNW 0.9 mph 1 mph 50% 0 in meteobridge W/m2
13:59 79.3 °F 57.4 °F 30.15 in North 0.9 mph 1 mph 47% 0 in meteobridge W/m2
14:04 79.5 °F 57.6 °F 30.15 in Calm   2 mph 47% 0 in meteobridge W/m2
14:09 79.5 °F 56.8 °F 30.15 in Calm   2 mph 46% 0 in meteobridge W/m2
14:14 79.5 °F 58.6 °F 30.15 in Calm   1 mph 49% 0 in meteobridge W/m2
14:19 79.3 °F 59 °F 30.15 in Calm   1 mph 50% 0 in meteobridge W/m2
14:24 79.5 °F 56.8 °F 30.15 in Calm     46% 0 in meteobridge W/m2
14:29 79.3 °F 59 °F 30.14 in East 2 mph 2 mph 50% 0 in meteobridge W/m2
14:34 79 °F 58.1 °F 30.14 in Calm   1 mph 49% 0 in meteobridge W/m2
14:39 78.8 °F 58.6 °F 30.14 in Calm     50% 0 in meteobridge W/m2
14:44 78.8 °F 58.6 °F 30.14 in Calm   7 mph 50% 0 in meteobridge W/m2
14:49 79.2 °F 58.3 °F 30.13 in Calm   1 mph 49% 0 in meteobridge W/m2
14:54 79.3 °F 60.8 °F 30.13 in NW 0.9 mph 1 mph 53% 0 in meteobridge W/m2
14:59 79.3 °F 57.9 °F 30.13 in Calm   2 mph 48% 0 in meteobridge W/m2
15:04 79.2 °F 59.5 °F 30.13 in Calm     51% 0 in meteobridge W/m2
15:09 79 °F 59.9 °F 30.13 in Calm     52% 0 in meteobridge W/m2
15:14 79 °F 59.9 °F 30.12 in Calm     52% 0 in meteobridge W/m2
15:19 78.6 °F 58.5 °F 30.12 in ESE 0.9 mph 4 mph 50% 0 in meteobridge W/m2
15:24 78.6 °F 59.5 °F 30.11 in Calm   1 mph 52% 0 in meteobridge W/m2
15:29 78.6 °F 59 °F 30.11 in Calm   2 mph 51% 0 in meteobridge W/m2
15:34 78.6 °F 59 °F 30.11 in Calm     51% 0 in meteobridge W/m2
15:39 78.6 °F 59 °F 30.11 in Calm     51% 0 in meteobridge W/m2
15:44 78.6 °F 58.5 °F 30.11 in Calm   1 mph 50% 0 in meteobridge W/m2
15:49 78.6 °F 59.5 °F 30.11 in Calm     52% 0 in meteobridge W/m2
15:54 79 °F 59.9 °F 30.11 in NNE 0.9 mph 1 mph 52% 0 in meteobridge W/m2
15:59 79 °F 61 °F 30.11 in Calm   3 mph 54% 0 in meteobridge W/m2
16:04 79.5 °F 58.6 °F 30.11 in Calm   4 mph 49% 0 in meteobridge W/m2
16:09 79.9 °F 59.5 °F 30.10 in Calm     50% 0 in meteobridge W/m2
16:14 79.5 °F 59.2 °F 30.10 in Calm     50% 0 in meteobridge W/m2
16:19 79.3 °F 59.7 °F 30.10 in Calm     51% 0 in meteobridge W/m2
16:24 79.3 °F 58.5 °F 30.10 in Calm     49% 0 in meteobridge W/m2
16:29 79.3 °F 60.8 °F 30.10 in Calm   1 mph 53% 0 in meteobridge W/m2
16:34 79.9 °F 60.1 °F 30.10 in Calm   1 mph 51% 0 in meteobridge W/m2
16:39 79.9 °F 59 °F 30.10 in Calm     49% 0 in meteobridge W/m2
16:44 79.9 °F 60.6 °F 30.10 in Calm     52% 0 in meteobridge W/m2
16:49 79.5 °F 57.6 °F 30.10 in Calm   1 mph 47% 0 in meteobridge W/m2
16:54 79.3 °F 59 °F 30.10 in North 0.9 mph 1 mph 50% 0 in meteobridge W/m2
16:59 79.5 °F 59.2 °F 30.10 in Calm     50% 0 in meteobridge W/m2
17:04 79.5 °F 59.2 °F 30.10 in Calm     50% 0 in meteobridge W/m2
17:09 79.3 °F 58.5 °F 30.10 in Calm   1 mph 49% 0 in meteobridge W/m2
17:14 79.3 °F 59 °F 30.10 in Calm   1 mph 50% 0 in meteobridge W/m2
17:19 79.3 °F 60.8 °F 30.10 in Calm     53% 0 in meteobridge W/m2
17:24 79.2 °F 60.1 °F 30.10 in Calm     52% 0 in meteobridge W/m2
17:29 79.2 °F 58.3 °F 30.10 in Calm     49% 0 in meteobridge W/m2
17:34 79 °F 58.8 °F 30.10 in Calm   1 mph 50% 0 in meteobridge W/m2
17:39 78.8 °F 58.6 °F 30.10 in Calm   1 mph 50% 0 in meteobridge W/m2
17:44 78.6 °F 58.5 °F 30.10 in Calm     50% 0 in meteobridge W/m2
17:49 78.6 °F 59 °F 30.10 in Calm     51% 0 in meteobridge W/m2
17:54 78.4 °F 59.9 °F 30.10 in Calm     53% 0 in meteobridge W/m2
17:59 78.4 °F 61.9 °F 30.10 in Calm     57% 0 in meteobridge W/m2
18:04 78.3 °F 60.8 °F 30.10 in Calm     55% 0 in meteobridge W/m2
18:09 78.1 °F 61.5 °F 30.10 in Calm     57% 0 in meteobridge W/m2
18:14 77.7 °F 62.2 °F 30.09 in Calm     59% 0 in meteobridge W/m2
18:19 77.5 °F 61.5 °F 30.09 in Calm     58% 0 in meteobridge W/m2
18:24 77.4 °F 61.9 °F 30.09 in Calm     59% 0 in meteobridge W/m2
18:29 77 °F 63.5 °F 30.09 in Calm     63% 0 in meteobridge W/m2
18:34 76.6 °F 63.5 °F 30.10 in Calm     64% 0 in meteobridge W/m2
18:39 76.5 °F 63.9 °F 30.10 in Calm   1 mph 65% 0 in meteobridge W/m2
18:44 76.3 °F 64 °F 30.09 in Calm     66% 0 in meteobridge W/m2
18:49 75.9 °F 64.2 °F 30.09 in Calm     67% 0 in meteobridge W/m2
18:54 75.9 °F 64.2 °F 30.09 in Calm     67% 0 in meteobridge W/m2
18:59 75.7 °F 64.4 °F 30.09 in Calm     68% 0 in meteobridge W/m2
19:04 75.6 °F 64.2 °F 30.09 in Calm     68% 0 in meteobridge W/m2
19:09 75.4 °F 63.7 °F 30.09 in Calm     67% 0 in meteobridge W/m2
19:14 75.4 °F 62.8 °F 30.09 in Calm     65% 0 in meteobridge W/m2
19:19 75.4 °F 62.8 °F 30.09 in Calm     65% 0 in meteobridge W/m2
19:24 75.4 °F 62.8 °F 30.09 in Calm     65% 0 in meteobridge W/m2
19:29 75 °F 63 °F 30.09 in Calm     66% 0 in meteobridge W/m2
19:34 74.8 °F 64 °F 30.09 in Calm     69% 0 in meteobridge W/m2
19:39 74.5 °F 64.4 °F 30.09 in Calm     71% 0 in meteobridge W/m2
19:44 73.9 °F 64.8 °F 30.09 in Calm     73% 0 in meteobridge W/m2
19:49 73.6 °F 64.8 °F 30.09 in Calm     74% 0 in meteobridge W/m2
19:54 72.9 °F 64.4 °F 30.10 in Calm     75% 0 in meteobridge W/m2
19:59 72.7 °F 64.8 °F 30.10 in Calm     76% 0 in meteobridge W/m2
20:04 72.3 °F 64.4 °F 30.10 in Calm     76% 0 in meteobridge W/m2
20:09 72.1 °F 64.2 °F 30.10 in Calm     76% 0 in meteobridge W/m2
20:14 72 °F 64 °F 30.10 in Calm     76% 0 in meteobridge W/m2
20:19 71.8 °F 63.9 °F 30.10 in Calm     76% 0 in meteobridge W/m2
20:24 71.6 °F 64 °F 30.10 in Calm     77% 0 in meteobridge W/m2
20:29 71.2 °F 64 °F 30.10 in Calm     78% 0 in meteobridge W/m2
20:34 70.9 °F 63.7 °F 30.10 in Calm     78% 0 in meteobridge W/m2
20:39 70.5 °F 63.7 °F 30.10 in Calm     79% 0 in meteobridge W/m2
20:44 70 °F 63.5 °F 30.10 in Calm     80% 0 in meteobridge W/m2
20:49 69.4 °F 63.3 °F 30.10 in Calm     81% 0 in meteobridge W/m2
20:54 69.3 °F 63.1 °F 30.10 in Calm     81% 0 in meteobridge W/m2
20:59 68.7 °F 63 °F 30.11 in Calm     82% 0 in meteobridge W/m2
21:04 68.5 °F 62.8 °F 30.11 in Calm     82% 0 in meteobridge W/m2
21:09 68.4 °F 63 °F 30.11 in Calm     83% 0 in meteobridge W/m2
21:14 68.2 °F 62.8 °F 30.11 in Calm     83% 0 in meteobridge W/m2
21:19 67.8 °F 62.8 °F 30.11 in Calm     84% 0 in meteobridge W/m2
21:24 67.5 °F 62.8 °F 30.11 in Calm     85% 0 in meteobridge W/m2
21:29 66.9 °F 62.2 °F 30.11 in Calm     85% 0 in meteobridge W/m2
21:34 66.7 °F 62.4 °F 30.12 in Calm     86% 0 in meteobridge W/m2
21:39 66.6 °F 62.2 °F 30.12 in Calm     86% 0 in meteobridge W/m2
21:44 66.4 °F 62.4 °F 30.12 in Calm     87% 0 in meteobridge W/m2
21:49 66 °F 62.1 °F 30.12 in Calm     87% 0 in meteobridge W/m2
21:54 65.7 °F 62.1 °F 30.12 in Calm     88% 0 in meteobridge W/m2
21:59 65.7 °F 62.1 °F 30.12 in Calm     88% 0 in meteobridge W/m2
22:04 65.5 °F 61.9 °F 30.13 in Calm     88% 0 in meteobridge W/m2
22:09 65.1 °F 61.5 °F 30.12 in Calm     88% 0 in meteobridge W/m2
22:14 64.9 °F 61.7 °F 30.13 in Calm     89% 0 in meteobridge W/m2
22:19 64.8 °F 61.5 °F 30.13 in Calm     89% 0 in meteobridge W/m2
22:24 64.6 °F 61.3 °F 30.13 in Calm     89% 0 in meteobridge W/m2
22:29 64.4 °F 61.2 °F 30.13 in Calm     89% 0 in meteobridge W/m2
22:34 64 °F 61 °F 30.14 in Calm     90% 0 in meteobridge W/m2
22:39 64 °F 61 °F 30.14 in Calm     90% 0 in meteobridge W/m2
22:44 63.9 °F 60.8 °F 30.14 in Calm     90% 0 in meteobridge W/m2
22:49 63.9 °F 60.8 °F 30.14 in Calm     90% 0 in meteobridge W/m2
22:54 63.7 °F 60.6 °F 30.14 in Calm     90% 0 in meteobridge W/m2
22:59 63.5 °F 60.8 °F 30.14 in Calm     91% 0 in meteobridge W/m2
23:04 63.5 °F 60.8 °F 30.14 in Calm     91% 0 in meteobridge W/m2
23:09 63.3 °F 60.6 °F 30.14 in Calm     91% 0 in meteobridge W/m2
23:14 63.3 °F 60.6 °F 30.14 in Calm     91% 0 in meteobridge W/m2
23:19 63.1 °F 60.4 °F 30.14 in Calm     91% 0 in meteobridge W/m2
23:24 63 °F 60.6 °F 30.14 in Calm     92% 0 in meteobridge W/m2
23:29 63 °F 60.6 °F 30.14 in Calm     92% 0 in meteobridge W/m2
23:34 62.8 °F 60.4 °F 30.14 in Calm     92% 0 in meteobridge W/m2
23:39 62.8 °F 60.4 °F 30.14 in Calm     92% 0 in meteobridge W/m2
23:44 62.6 °F 60.3 °F 30.14 in Calm     92% 0 in meteobridge W/m2
23:49 62.8 °F 60.8 °F 30.14 in Calm     93% 0 in meteobridge W/m2
23:54 62.6 °F 60.6 °F 30.14 in Calm     93% 0 in meteobridge W/m2
23:59 62.4 °F 60.4 °F 30.14 in Calm     93% 0 in meteobridge W/m2
EllijayWeather
Compliments of Weather Underground - 2.5 mb